Terminal Aerodrome Forecast
Issued by NWS

Home | Current Version | Previous Version | Graphics & Text | Print | Product List | Glossary On
Versions: 1 2 3 4 5 6 7 8 9 10 11 12 13 14 15 16 17 18 19 20 21 22 23 24 25 26 27 28 29 30 31 32 33 34 35 36 37 38 39 40 41 42 43 44 45 46 47 48 49 50
000
FTUS43 KLOT 221400 AAA
TAFGYY
TAF AMD
KGYY 221406Z 2214/2312 19012KT 3SM -DZ BR OVC012
      TEMPO 2215/2217 1 1/2SM -RA BR OVC004
     FM221700 20011KT 3SM -DZ BR OVC008
     FM230200 20012KT 4SM BR OVC007 WS020/21045KT
     FM230900 20013KT 4SM -RA BR OVC007=

USA.gov is the U.S. government's official web portal to all federal, state and local government web resources and services.